createdAt,value
2018-12-03T00:01:32.782Z,0.53
2018-12-03T00:04:20.919Z,0.45
2018-12-03T00:06:50.458Z,0.42
2018-12-03T00:09:19.868Z,0.42
2018-12-03T00:11:48.721Z,0.43
2018-12-03T00:14:17.678Z,0.44
2018-12-03T00:16:46.584Z,0.40
2018-12-03T00:19:15.566Z,0.42
2018-12-03T00:21:44.428Z,0.47
2018-12-03T00:24:13.389Z,0.48
2018-12-03T00:26:42.238Z,0.50
2018-12-03T00:29:11.053Z,0.52
2018-12-03T00:31:39.952Z,0.53
2018-12-03T00:34:08.775Z,0.52
2018-12-03T00:36:37.674Z,0.54
2018-12-03T00:39:08.310Z,0.56
2018-12-03T00:41:37.349Z,0.57
2018-12-03T00:44:06.454Z,0.57
2018-12-03T00:46:35.271Z,0.57
2018-12-03T00:49:04.076Z,0.56
2018-12-03T00:51:32.971Z,0.50
2018-12-03T00:54:01.783Z,0.46
2018-12-03T00:56:30.578Z,0.48
2018-12-03T00:58:59.357Z,0.47
2018-12-03T01:01:32.235Z,0.47
2018-12-03T01:04:01.119Z,0.41
2018-12-03T01:06:29.975Z,0.40
2018-12-03T01:08:58.885Z,0.32
2018-12-03T01:11:27.652Z,0.32
2018-12-03T01:13:56.470Z,0.31
2018-12-03T01:16:25.332Z,0.26
2018-12-03T01:18:54.078Z,0.28
2018-12-03T01:21:22.872Z,0.26
2018-12-03T01:23:51.781Z,0.23
2018-12-03T01:26:20.623Z,0.18
2018-12-03T01:28:49.473Z,0.17
2018-12-03T01:31:18.424Z,0.14
2018-12-03T01:33:47.213Z,0.08
2018-12-03T01:36:16.002Z,0.07
2018-12-03T01:38:44.825Z,-0.03
2018-12-03T01:41:13.707Z,-0.03
2018-12-03T01:43:42.536Z,-0.05
2018-12-03T01:46:11.441Z,-0.04
2018-12-03T01:48:40.226Z,-0.11
2018-12-03T01:51:09.139Z,-0.12
2018-12-03T01:53:37.883Z,-0.15
2018-12-03T01:56:06.743Z,-0.09
2018-12-03T01:58:35.641Z,-0.06
2018-12-03T02:01:04.425Z,-0.09
2018-12-03T02:03:33.233Z,-0.06
2018-12-03T02:06:02.100Z,-0.04
2018-12-03T02:08:30.927Z,-0.04
2018-12-03T02:10:59.761Z,-0.11
2018-12-03T02:13:28.591Z,-0.12
2018-12-03T02:15:57.387Z,-0.21
2018-12-03T02:18:26.285Z,-0.22
2018-12-03T02:20:55.114Z,-0.18
2018-12-03T02:23:23.972Z,-0.23
2018-12-03T02:25:52.783Z,-0.17
2018-12-03T02:28:21.596Z,-0.15
2018-12-03T02:30:50.442Z,-0.18
2018-12-03T02:33:19.424Z,-0.19
2018-12-03T02:35:48.243Z,-0.14
2018-12-03T02:38:17.114Z,-0.17
2018-12-03T02:40:46.004Z,-0.21
2018-12-03T02:43:14.817Z,-0.14
2018-12-03T02:45:43.614Z,-0.18
2018-12-03T02:48:12.404Z,-0.16
2018-12-03T02:50:41.224Z,-0.26
2018-12-03T02:53:10.060Z,-0.31
2018-12-03T02:55:38.973Z,-0.27
2018-12-03T02:58:07.864Z,-0.18
2018-12-03T03:00:40.147Z,-0.18
2018-12-03T03:03:08.956Z,-0.20
2018-12-03T03:05:37.760Z,-0.19
2018-12-03T03:08:07.046Z,-0.24
2018-12-03T03:10:35.881Z,-0.23
2018-12-03T03:13:04.759Z,-0.21
2018-12-03T03:15:33.567Z,-0.23
2018-12-03T03:18:02.415Z,-0.28
2018-12-03T03:20:31.332Z,-0.31
2018-12-03T03:23:00.143Z,-0.24
2018-12-03T03:25:28.933Z,-0.19
2018-12-03T03:27:57.747Z,-0.18
2018-12-03T03:30:26.595Z,-0.25
2018-12-03T03:32:55.395Z,-0.31
2018-12-03T03:35:24.310Z,-0.42
2018-12-03T03:37:53.125Z,-0.39
2018-12-03T03:40:21.946Z,-0.42
2018-12-03T03:42:50.816Z,-0.50
2018-12-03T03:45:22.868Z,-0.58
2018-12-03T03:47:51.790Z,-0.76
2018-12-03T03:50:20.661Z,-0.75
2018-12-03T03:52:49.922Z,-0.73
2018-12-03T03:55:18.777Z,-0.80
2018-12-03T03:57:47.748Z,-0.81
2018-12-03T04:00:17.102Z,-0.80
2018-12-03T04:02:46.012Z,-0.74
2018-12-03T04:05:15.793Z,-0.74
2018-12-03T04:07:46.428Z,-0.74
2018-12-03T04:10:16.031Z,-0.72
2018-12-03T04:12:45.892Z,-0.70
2018-12-03T04:15:15.705Z,-0.65
2018-12-03T04:17:44.997Z,-0.66
2018-12-03T04:20:15.006Z,-0.66
2018-12-03T04:22:44.798Z,-0.64
2018-12-03T04:25:13.939Z,-0.60
2018-12-03T04:27:42.741Z,-0.60
2018-12-03T04:30:16.576Z,-0.63
2018-12-03T04:32:45.378Z,-0.51
2018-12-03T04:35:14.679Z,-0.54
2018-12-03T04:37:44.247Z,-0.60
2018-12-03T04:40:15.363Z,-0.58
2018-12-03T04:42:44.234Z,-0.48
2018-12-03T04:45:15.197Z,-0.40
2018-12-03T04:47:44.039Z,-0.38
2018-12-03T04:50:14.200Z,-0.37
2018-12-03T04:52:43.029Z,-0.34
2018-12-03T04:55:12.245Z,-0.36
2018-12-03T04:57:41.088Z,-0.40
2018-12-03T05:00:14.893Z,-0.40
2018-12-03T05:02:44.237Z,-0.37
2018-12-03T05:05:13.068Z,-0.32
2018-12-03T05:07:42.023Z,-0.39
2018-12-03T05:10:16.790Z,-0.34
2018-12-03T05:12:46.792Z,-0.31
2018-12-03T05:15:15.764Z,-0.25
2018-12-03T05:17:45.110Z,-0.23
2018-12-03T05:20:17.279Z,-0.25
2018-12-03T05:22:46.093Z,-0.32
2018-12-03T05:25:19.152Z,-0.38
2018-12-03T05:27:43.732Z,-0.39
2018-12-03T05:30:14.003Z,-0.36
2018-12-03T05:32:43.434Z,-0.26
2018-12-03T05:35:14.630Z,-0.26
2018-12-03T05:37:43.439Z,-0.27
2018-12-03T05:40:17.526Z,-0.24
2018-12-03T05:42:46.482Z,-0.21
2018-12-03T05:45:15.396Z,-0.23
2018-12-03T05:47:44.239Z,-0.31
2018-12-03T05:50:15.352Z,-0.31
2018-12-03T05:52:45.184Z,-0.21
2018-12-03T05:55:14.475Z,-0.28
2018-12-03T05:57:43.730Z,-0.26
2018-12-03T06:00:16.912Z,-0.20
2018-12-03T06:02:45.716Z,-0.24
2018-12-03T06:05:15.232Z,-0.18
2018-12-03T06:07:44.084Z,-0.25
2018-12-03T06:10:15.428Z,-0.12
2018-12-03T06:12:44.329Z,-0.03
2018-12-03T06:15:14.151Z,0.02
2018-12-03T06:17:42.989Z,-0.07
2018-12-03T06:20:14.012Z,-0.05
2018-12-03T06:22:43.307Z,-0.07
2018-12-03T06:25:17.463Z,-0.10
2018-12-03T06:27:46.360Z,-0.11
2018-12-03T06:30:20.962Z,0.01
2018-12-03T06:32:49.926Z,0.08
2018-12-03T06:35:19.127Z,0.00
2018-12-03T06:37:48.283Z,-0.19
2018-12-03T06:40:27.105Z,-0.16
2018-12-03T06:42:55.894Z,0.04
2018-12-03T06:45:25.388Z,0.03
2018-12-03T06:47:57.081Z,0.11
2018-12-03T06:50:25.936Z,0.08
2018-12-03T06:52:54.840Z,-0.03
2018-12-03T06:55:24.345Z,-0.13
2018-12-03T06:57:53.164Z,-0.09
2018-12-03T07:00:23.212Z,-0.13
2018-12-03T07:02:52.198Z,-0.04
2018-12-03T07:05:21.005Z,0.01
2018-12-03T07:07:51.278Z,-0.12
2018-12-03T07:10:21.154Z,-0.11
2018-12-03T07:12:54.163Z,-0.10
2018-12-03T07:15:23.376Z,0.04
2018-12-03T07:17:58.189Z,0.19
2018-12-03T07:20:27.875Z,0.07
2018-12-03T07:22:57.711Z,0.08
2018-12-03T07:25:26.532Z,0.07
2018-12-03T07:27:55.311Z,-0.09
2018-12-03T07:30:25.605Z,0.03
2018-12-03T07:32:55.132Z,0.05
2018-12-03T07:35:26.136Z,0.15
2018-12-03T07:37:56.779Z,0.25
2018-12-03T07:40:26.334Z,0.26
2018-12-03T07:42:55.645Z,0.33
2018-12-03T07:45:30.266Z,0.45
2018-12-03T07:47:59.257Z,0.48
2018-12-03T07:50:28.484Z,0.49
2018-12-03T07:52:59.158Z,0.46
2018-12-03T07:55:28.019Z,0.54
2018-12-03T07:57:59.562Z,0.61
2018-12-03T08:00:37.126Z,0.65
2018-12-03T08:03:07.047Z,0.66
2018-12-03T08:05:36.573Z,0.60
2018-12-03T08:08:05.746Z,0.60
2018-12-03T08:10:34.818Z,0.69
2018-12-03T08:13:03.640Z,0.56
2018-12-03T08:15:32.503Z,0.66
2018-12-03T08:18:03.807Z,0.70
2018-12-03T08:20:39.235Z,0.73
2018-12-03T08:23:14.820Z,0.63
2018-12-03T08:25:43.621Z,0.60
2018-12-03T08:28:12.624Z,0.68
2018-12-03T08:30:41.531Z,0.82
2018-12-03T08:33:10.321Z,0.91
2018-12-03T08:35:39.197Z,0.97
2018-12-03T08:38:08.054Z,1.04
2018-12-03T08:40:36.905Z,1.17
2018-12-03T08:43:05.919Z,1.25
2018-12-03T08:45:34.797Z,1.32
2018-12-03T08:48:03.657Z,1.41
2018-12-03T08:50:32.511Z,1.36
2018-12-03T08:53:01.357Z,1.54
2018-12-03T08:55:30.229Z,1.57
2018-12-03T08:57:59.089Z,1.50
2018-12-03T09:00:29.385Z,1.29
2018-12-03T09:03:06.062Z,1.32
2018-12-03T09:05:36.973Z,1.72
2018-12-03T09:08:07.212Z,1.88
2018-12-03T09:10:36.136Z,1.96
2018-12-03T09:13:14.308Z,2.06
2018-12-03T09:15:43.372Z,2.01
2018-12-03T09:18:12.176Z,2.05
2018-12-03T09:20:41.026Z,1.82
2018-12-03T09:23:09.879Z,2.00
2018-12-03T09:25:38.771Z,2.10
2018-12-03T09:28:07.953Z,2.23
2018-12-03T09:30:36.713Z,2.24
2018-12-03T09:33:05.767Z,2.23
2018-12-03T09:35:34.623Z,2.31
2018-12-03T09:38:03.399Z,2.36
2018-12-03T09:40:32.285Z,2.25
2018-12-03T09:43:01.119Z,2.16
2018-12-03T09:45:30.729Z,2.17
2018-12-03T09:47:59.522Z,2.22
2018-12-03T09:50:29.210Z,2.19
2018-12-03T09:52:58.262Z,2.29
2018-12-03T09:55:30.624Z,2.43
2018-12-03T09:58:08.431Z,2.51
2018-12-03T10:00:37.462Z,2.60
2018-12-03T10:03:09.458Z,2.68
2018-12-03T10:05:40.865Z,2.72
2018-12-03T10:08:09.650Z,2.86
2018-12-03T10:10:38.435Z,2.96
2018-12-03T10:13:08.900Z,3.00
2018-12-03T10:15:37.660Z,3.02
2018-12-03T10:18:06.695Z,3.05
2018-12-03T10:20:35.505Z,3.13
2018-12-03T10:23:04.340Z,3.17
2018-12-03T10:25:33.161Z,3.16
2018-12-03T10:28:04.812Z,3.19
2018-12-03T10:30:33.634Z,3.18
2018-12-03T10:33:02.508Z,3.17
2018-12-03T10:35:35.906Z,3.05
2018-12-03T10:38:14.216Z,2.94
2018-12-03T10:40:46.325Z,2.93
2018-12-03T10:43:15.189Z,2.87
2018-12-03T10:45:44.012Z,2.90
2018-12-03T10:48:12.808Z,2.92
2018-12-03T10:50:42.066Z,2.95
2018-12-03T10:53:10.941Z,3.08
2018-12-03T10:55:42.788Z,3.16
2018-12-03T10:58:14.826Z,3.21
2018-12-03T11:00:49.122Z,3.08
2018-12-03T11:03:23.304Z,3.14
2018-12-03T11:05:57.516Z,3.21
2018-12-03T11:08:26.923Z,3.25
2018-12-03T11:10:56.644Z,3.30
2018-12-03T11:13:25.511Z,3.42
2018-12-03T11:15:54.341Z,3.43
2018-12-03T11:18:23.247Z,3.49
2018-12-03T11:20:52.074Z,3.64
2018-12-03T11:23:24.319Z,3.84
2018-12-03T11:25:53.429Z,3.89
2018-12-03T11:28:22.388Z,3.99
2018-12-03T11:30:54.805Z,4.17
2018-12-03T11:33:25.298Z,4.20
2018-12-03T11:35:56.111Z,4.17
2018-12-03T11:38:30.579Z,4.12
2018-12-03T11:40:59.494Z,4.09
2018-12-03T11:43:29.703Z,4.04
2018-12-03T11:45:59.153Z,4.15
2018-12-03T11:48:28.059Z,4.19
2018-12-03T11:50:56.954Z,4.35
2018-12-03T11:53:25.795Z,4.28
2018-12-03T11:55:54.717Z,4.38
2018-12-03T11:58:23.525Z,4.51
2018-12-03T12:00:52.611Z,4.47
2018-12-03T12:03:21.500Z,4.38
2018-12-03T12:05:50.361Z,4.41
2018-12-03T12:08:20.348Z,4.37
2018-12-03T12:10:48.177Z,4.18
2018-12-03T12:13:16.992Z,4.04
2018-12-03T12:15:45.778Z,4.02
2018-12-03T12:18:15.300Z,3.94
2018-12-03T12:20:44.136Z,3.89
2018-12-03T12:23:12.962Z,3.90
2018-12-03T12:25:41.718Z,3.70
2018-12-03T12:28:10.501Z,3.83
2018-12-03T12:30:39.385Z,3.83
2018-12-03T12:33:08.299Z,3.83
2018-12-03T12:35:37.143Z,3.83
2018-12-03T12:38:06.832Z,3.76
2018-12-03T12:40:35.674Z,3.66
2018-12-03T12:43:04.659Z,3.62
2018-12-03T12:45:41.083Z,3.68
2018-12-03T12:48:10.271Z,3.68
2018-12-03T12:50:39.101Z,3.50
2018-12-03T12:53:07.985Z,3.42
2018-12-03T12:55:36.807Z,3.50
2018-12-03T12:58:06.232Z,3.41
2018-12-03T13:00:35.147Z,3.28
2018-12-03T13:03:04.073Z,3.21
2018-12-03T13:05:33.516Z,3.13
2018-12-03T13:08:02.462Z,2.90
2018-12-03T13:10:31.332Z,2.90
2018-12-03T13:13:00.123Z,2.89
2018-12-03T13:15:28.994Z,2.86
2018-12-03T13:17:57.828Z,2.81
2018-12-03T13:20:26.664Z,2.87
2018-12-03T13:22:55.428Z,2.88
2018-12-03T13:25:24.298Z,2.89
2018-12-03T13:27:54.275Z,2.92
2018-12-03T13:30:23.114Z,3.02
2018-12-03T13:32:51.973Z,3.04
2018-12-03T13:35:20.790Z,3.00
2018-12-03T13:37:50.048Z,2.93
2018-12-03T13:40:18.903Z,2.81
2018-12-03T13:42:48.169Z,2.77
2018-12-03T13:45:20.203Z,2.74
2018-12-03T13:47:49.583Z,2.67
2018-12-03T13:50:18.584Z,2.59
2018-12-03T13:52:47.447Z,2.62
2018-12-03T13:55:17.784Z,2.70
2018-12-03T13:57:47.166Z,2.70
2018-12-03T14:00:19.765Z,2.67
2018-12-03T14:02:52.465Z,2.61
2018-12-03T14:06:30.373Z,2.62
2018-12-03T14:10:04.321Z,2.56
2018-12-03T14:12:36.159Z,2.32
2018-12-03T14:15:15.831Z,2.21
2018-12-03T14:17:49.985Z,2.28
2018-12-03T14:20:20.023Z,2.27
2018-12-03T14:22:52.029Z,2.28
2018-12-03T14:25:20.835Z,2.21
2018-12-03T14:27:50.428Z,2.15
2018-12-03T14:30:19.270Z,2.11
2018-12-03T14:32:48.116Z,2.09
2018-12-03T14:35:16.932Z,2.02
2018-12-03T14:37:45.947Z,1.97
2018-12-03T14:40:14.737Z,2.01
2018-12-03T14:42:43.603Z,1.97
2018-12-03T14:45:13.793Z,1.90
2018-12-03T14:47:42.545Z,1.86
2018-12-03T14:50:11.747Z,1.92
2018-12-03T14:52:40.439Z,1.87
2018-12-03T14:55:09.930Z,1.90
2018-12-03T14:57:38.647Z,1.88
2018-12-03T15:00:13.286Z,1.84
2018-12-03T15:02:42.076Z,1.84
2018-12-03T15:05:10.900Z,1.78
2018-12-03T15:07:39.691Z,1.72
2018-12-03T15:10:10.120Z,1.64
2018-12-03T15:12:38.959Z,1.59
2018-12-03T15:15:10.446Z,1.62
2018-12-03T15:17:40.791Z,1.62
2018-12-03T15:20:10.057Z,1.56
2018-12-03T15:22:38.967Z,1.52
2018-12-03T15:25:10.432Z,1.50
2018-12-03T15:27:39.210Z,1.45
2018-12-03T15:30:11.200Z,1.38
2018-12-03T15:32:39.936Z,1.31
2018-12-03T15:35:10.293Z,1.30
2018-12-03T15:37:39.112Z,1.29
2018-12-03T15:40:16.440Z,1.29
2018-12-03T15:42:45.203Z,1.20
2018-12-03T15:45:15.996Z,1.21
2018-12-03T15:47:45.302Z,1.27
2018-12-03T15:50:14.533Z,1.25
2018-12-03T15:52:43.362Z,1.19
2018-12-03T15:55:12.133Z,1.11
2018-12-03T15:57:40.931Z,1.12
2018-12-03T16:00:11.862Z,1.04
2018-12-03T16:02:41.165Z,1.06
2018-12-03T16:05:26.421Z,1.05
2018-12-03T16:07:55.223Z,1.04
2018-12-03T16:10:24.044Z,1.06
2018-12-03T16:12:53.662Z,1.09
2018-12-03T16:15:22.437Z,0.99
2018-12-03T16:17:51.282Z,0.94
2018-12-03T16:20:20.074Z,0.95
2018-12-03T16:22:48.816Z,0.95
2018-12-03T16:25:17.648Z,0.99
2018-12-03T16:27:46.369Z,1.03
2018-12-03T16:30:18.327Z,1.00
2018-12-03T16:32:47.827Z,1.06
2018-12-03T16:35:16.742Z,1.05
2018-12-03T16:37:45.624Z,1.11
2018-12-03T16:40:15.040Z,1.13
2018-12-03T16:42:43.851Z,1.14
2018-12-03T16:45:13.129Z,1.16
2018-12-03T16:47:41.943Z,1.05
2018-12-03T16:50:11.040Z,1.17
2018-12-03T16:52:40.153Z,1.22
2018-12-03T16:55:09.564Z,1.23
2018-12-03T16:57:38.373Z,1.31
2018-12-03T17:00:16.473Z,1.38
2018-12-03T17:02:45.246Z,1.30
2018-12-03T17:05:14.602Z,1.37
2018-12-03T17:07:43.889Z,1.31
2018-12-03T17:10:15.794Z,1.25
2018-12-03T17:12:44.690Z,1.11
2018-12-03T17:15:13.979Z,1.11
2018-12-03T17:17:42.851Z,1.23
2018-12-03T17:20:32.829Z,1.27
2018-12-03T17:23:22.007Z,1.30
2018-12-03T17:25:51.138Z,1.39
2018-12-03T17:28:19.888Z,1.36
2018-12-03T17:30:48.725Z,1.32
2018-12-03T17:33:17.528Z,1.36
2018-12-03T17:35:46.298Z,1.36
2018-12-03T17:38:15.150Z,1.35
2018-12-03T17:40:44.213Z,1.35
2018-12-03T17:43:13.033Z,1.36
2018-12-03T17:45:42.077Z,1.35
2018-12-03T17:48:10.892Z,1.30
2018-12-03T17:50:39.897Z,1.32
2018-12-03T17:53:08.681Z,1.30
2018-12-03T17:55:37.518Z,1.32
2018-12-03T17:58:06.324Z,1.33
2018-12-03T18:00:35.138Z,1.37
2018-12-03T18:03:03.892Z,1.35
2018-12-03T18:05:32.715Z,1.39
2018-12-03T18:08:01.528Z,1.36
2018-12-03T18:10:30.926Z,1.39
2018-12-03T18:12:59.771Z,1.35
2018-12-03T18:15:28.545Z,1.36
2018-12-03T18:17:57.387Z,1.40
2018-12-03T18:20:26.959Z,1.35
2018-12-03T18:22:55.718Z,1.40
2018-12-03T18:25:24.529Z,1.41
2018-12-03T18:27:53.304Z,1.39
2018-12-03T18:30:22.065Z,1.36
2018-12-03T18:32:50.787Z,1.28
2018-12-03T18:35:19.612Z,1.23
2018-12-03T18:37:48.365Z,1.23
2018-12-03T18:40:17.118Z,1.25
2018-12-03T18:42:46.168Z,1.22
2018-12-03T18:45:15.003Z,1.11
2018-12-03T18:47:43.854Z,1.03
2018-12-03T18:50:22.591Z,1.07
2018-12-03T18:52:51.670Z,1.06
2018-12-03T18:55:20.462Z,1.07
2018-12-03T18:57:53.151Z,1.08
2018-12-03T19:00:22.043Z,1.06
2018-12-03T19:02:50.894Z,1.13
2018-12-03T19:05:19.755Z,1.13
2018-12-03T19:07:48.574Z,1.13
2018-12-03T19:10:17.337Z,1.22
2018-12-03T19:12:46.205Z,1.31
2018-12-03T19:15:14.956Z,1.31
2018-12-03T19:17:43.768Z,1.25
2018-12-03T19:20:13.084Z,1.28
2018-12-03T19:22:41.869Z,1.23
2018-12-03T19:25:11.029Z,1.33
2018-12-03T19:27:39.787Z,1.41
2018-12-03T19:30:13.726Z,1.30
2018-12-03T19:32:42.719Z,1.27
2018-12-03T19:35:11.593Z,1.29
2018-12-03T19:37:40.422Z,1.22
2018-12-03T19:40:09.280Z,1.08
2018-12-03T19:42:38.042Z,1.14
2018-12-03T19:45:08.150Z,1.13
2018-12-03T19:47:36.925Z,1.24
2018-12-03T19:50:07.318Z,1.26
2018-12-03T19:52:36.450Z,1.19
2018-12-03T19:55:07.280Z,1.21
2018-12-03T19:57:36.651Z,1.25
2018-12-03T20:00:15.963Z,1.23
2018-12-03T20:02:45.291Z,1.25
2018-12-03T20:05:17.765Z,1.26
2018-12-03T20:07:46.672Z,1.27
2018-12-03T20:10:15.714Z,1.29
2018-12-03T20:12:44.532Z,1.28
2018-12-03T20:15:13.706Z,1.24
2018-12-03T20:17:43.660Z,1.22
2018-12-03T20:20:16.436Z,1.28
2018-12-03T20:22:57.430Z,1.26
2018-12-03T20:25:33.749Z,1.23
2018-12-03T20:28:08.134Z,1.21
2018-12-03T20:30:48.698Z,1.23
2018-12-03T20:33:21.046Z,1.09
2018-12-03T20:36:02.868Z,1.10
2018-12-03T20:38:44.926Z,1.15
2018-12-03T20:41:22.494Z,1.22
2018-12-03T20:43:52.896Z,1.20
2018-12-03T20:46:34.634Z,1.16
2018-12-03T20:49:20.946Z,1.20
2018-12-03T20:51:51.254Z,1.11
2018-12-03T20:54:20.038Z,0.99
2018-12-03T20:56:48.817Z,0.98
2018-12-03T20:59:18.431Z,0.97
2018-12-03T21:01:48.311Z,0.96
2018-12-03T21:04:21.169Z,0.97
2018-12-03T21:06:50.176Z,0.93
2018-12-03T21:09:18.990Z,0.99
2018-12-03T21:11:47.819Z,1.02
2018-12-03T21:14:20.127Z,1.02
2018-12-03T21:16:47.490Z,0.96
2018-12-03T21:19:16.281Z,0.96
2018-12-03T21:21:45.090Z,1.01
2018-12-03T21:24:13.827Z,1.04
2018-12-03T21:26:43.021Z,1.11
2018-12-03T21:29:11.742Z,1.00
2018-12-03T21:31:40.517Z,0.98
2018-12-03T21:34:09.256Z,0.92
2018-12-03T21:36:38.029Z,0.90
2018-12-03T21:39:08.399Z,0.96
2018-12-03T21:41:37.162Z,0.94
2018-12-03T21:44:05.991Z,0.96
2018-12-03T21:46:34.719Z,0.97
2018-12-03T21:49:03.604Z,0.98
2018-12-03T21:51:32.358Z,0.98
2018-12-03T21:54:01.299Z,0.98
2018-12-03T21:56:30.138Z,0.97
2018-12-03T21:58:58.917Z,0.89
2018-12-03T22:01:27.725Z,0.82
2018-12-03T22:03:56.452Z,0.88
2018-12-03T22:06:25.262Z,0.93
2018-12-03T22:08:54.162Z,0.97
2018-12-03T22:11:22.970Z,0.84
2018-12-03T22:13:51.739Z,0.84
2018-12-03T22:16:20.592Z,0.82
2018-12-03T22:18:49.422Z,0.86
2018-12-03T22:21:18.173Z,0.73
2018-12-03T22:23:46.916Z,0.65
2018-12-03T22:26:15.735Z,0.59
2018-12-03T22:28:44.472Z,0.60
2018-12-03T22:31:13.212Z,0.67
2018-12-03T22:33:42.003Z,0.71
2018-12-03T22:36:10.815Z,0.72
2018-12-03T22:38:39.563Z,0.66
2018-12-03T22:41:08.390Z,0.72
2018-12-03T22:43:37.166Z,0.72
2018-12-03T22:46:05.970Z,0.70
2018-12-03T22:48:34.753Z,0.70
2018-12-03T22:51:03.499Z,0.65
2018-12-03T22:53:32.360Z,0.74
2018-12-03T22:56:01.121Z,0.80
2018-12-03T22:58:29.901Z,0.80
2018-12-03T23:01:05.076Z,0.74
2018-12-03T23:03:34.327Z,0.68
2018-12-03T23:06:03.681Z,0.63
2018-12-03T23:08:32.472Z,0.69
2018-12-03T23:11:01.214Z,0.78
2018-12-03T23:13:30.000Z,0.78
2018-12-03T23:15:58.769Z,0.69
2018-12-03T23:18:27.542Z,0.78
2018-12-03T23:20:56.299Z,0.75
2018-12-03T23:23:25.048Z,0.61
2018-12-03T23:25:53.791Z,0.54
2018-12-03T23:28:22.505Z,0.56
2018-12-03T23:30:51.267Z,0.53
2018-12-03T23:33:20.646Z,0.54
2018-12-03T23:35:49.495Z,0.58
2018-12-03T23:38:18.281Z,0.62
2018-12-03T23:40:47.212Z,0.59
2018-12-03T23:43:15.995Z,0.61
2018-12-03T23:45:44.790Z,0.66
2018-12-03T23:48:13.512Z,0.65
2018-12-03T23:50:42.234Z,0.66
2018-12-03T23:53:11.025Z,0.62
2018-12-03T23:55:39.796Z,0.57
2018-12-03T23:58:08.556Z,0.60
